sensor_id;sensor_type;location;lat;lon;timestamp;pressure;altitude;pressure_sealevel;temperature;humidity
13027;BME280;6580;42.680;23.324;2024-02-21T00:01:06;95964.63;;;7.37;100.00
13027;BME280;6580;42.680;23.324;2024-02-21T00:03:33;95962.19;;;7.34;100.00
13027;BME280;6580;42.680;23.324;2024-02-21T00:06:01;95966.06;;;7.19;100.00
13027;BME280;6580;42.680;23.324;2024-02-21T00:08:28;95966.06;;;7.19;100.00
13027;BME280;6580;42.680;23.324;2024-02-21T00:10:55;95966.75;;;7.10;100.00
13027;BME280;6580;42.680;23.324;2024-02-21T00:13:23;95970.25;;;7.22;100.00
13027;BME280;6580;42.680;23.324;2024-02-21T00:15:50;95965.56;;;7.14;100.00
13027;BME280;6580;42.680;23.324;2024-02-21T00:18:17;95968.34;;;7.24;100.00
13027;BME280;6580;42.680;23.324;2024-02-21T00:20:44;95963.78;;;7.15;100.00
13027;BME280;6580;42.680;23.324;2024-02-21T00:23:13;95963.16;;;7.11;100.00
13027;BME280;6580;42.680;23.324;2024-02-21T00:25:42;95961.22;;;7.13;100.00
13027;BME280;6580;42.680;23.324;2024-02-21T00:28:09;95961.47;;;7.10;100.00
13027;BME280;6580;42.680;23.324;2024-02-21T00:30:37;95952.94;;;7.18;100.00
13027;BME280;6580;42.680;23.324;2024-02-21T00:33:05;95957.16;;;7.20;100.00
13027;BME280;6580;42.680;23.324;2024-02-21T00:35:32;95956.91;;;7.34;100.00
13027;BME280;6580;42.680;23.324;2024-02-21T00:37:59;95958.25;;;7.18;100.00
13027;BME280;6580;42.680;23.324;2024-02-21T00:40:27;95953.78;;;7.18;100.00
13027;BME280;6580;42.680;23.324;2024-02-21T00:42:55;95957.38;;;7.17;100.00
13027;BME280;6580;42.680;23.324;2024-02-21T00:45:22;95958.59;;;7.24;100.00
13027;BME280;6580;42.680;23.324;2024-02-21T00:47:49;95953.06;;;7.16;100.00
13027;BME280;6580;42.680;23.324;2024-02-21T00:50:16;95960.50;;;7.11;100.00
13027;BME280;6580;42.680;23.324;2024-02-21T00:52:43;95946.81;;;7.06;100.00
13027;BME280;6580;42.680;23.324;2024-02-21T00:55:11;95949.44;;;7.06;100.00
13027;BME280;6580;42.680;23.324;2024-02-21T00:57:41;95954.97;;;7.03;100.00
13027;BME280;6580;42.680;23.324;2024-02-21T01:00:09;95942.59;;;7.15;100.00
13027;BME280;6580;42.680;23.324;2024-02-21T01:02:36;95940.28;;;7.10;100.00
13027;BME280;6580;42.680;23.324;2024-02-21T01:05:03;95935.84;;;7.00;100.00
13027;BME280;6580;42.680;23.324;2024-02-21T01:07:31;95939.19;;;7.02;100.00
13027;BME280;6580;42.680;23.324;2024-02-21T01:09:58;95931.72;;;7.07;100.00
13027;BME280;6580;42.680;23.324;2024-02-21T01:12:25;95922.47;;;6.91;100.00
13027;BME280;6580;42.680;23.324;2024-02-21T01:14:55;95928.13;;;6.97;100.00
13027;BME280;6580;42.680;23.324;2024-02-21T01:17:22;95923.19;;;7.03;100.00
13027;BME280;6580;42.680;23.324;2024-02-21T01:19:50;95924.41;;;7.00;100.00
13027;BME280;6580;42.680;23.324;2024-02-21T01:22:16;95923.53;;;6.77;100.00
13027;BME280;6580;42.680;23.324;2024-02-21T01:24:44;95918.13;;;6.79;100.00
13027;BME280;6580;42.680;23.324;2024-02-21T01:27:13;95923.91;;;6.73;100.00
13027;BME280;6580;42.680;23.324;2024-02-21T01:29:42;95922.09;;;6.84;100.00
13027;BME280;6580;42.680;23.324;2024-02-21T01:32:11;95912.94;;;6.88;100.00
13027;BME280;6580;42.680;23.324;2024-02-21T01:34:38;95921.75;;;6.89;100.00
13027;BME280;6580;42.680;23.324;2024-02-21T01:37:10;95910.44;;;6.87;100.00
13027;BME280;6580;42.680;23.324;2024-02-21T01:39:38;95914.06;;;7.07;100.00
13027;BME280;6580;42.680;23.324;2024-02-21T01:42:06;95904.88;;;7.11;100.00
13027;BME280;6580;42.680;23.324;2024-02-21T01:44:35;95902.22;;;7.11;100.00
13027;BME280;6580;42.680;23.324;2024-02-21T01:47:04;95898.16;;;7.07;100.00
13027;BME280;6580;42.680;23.324;2024-02-21T01:49:33;95899.09;;;7.17;100.00
13027;BME280;6580;42.680;23.324;2024-02-21T01:52:03;95901.53;;;7.20;100.00
13027;BME280;6580;42.680;23.324;2024-02-21T01:54:31;95886.00;;;7.16;100.00
13027;BME280;6580;42.680;23.324;2024-02-21T01:56:58;95897.44;;;7.16;100.00
13027;BME280;6580;42.680;23.324;2024-02-21T01:59:26;95889.25;;;7.19;100.00
13027;BME280;6580;42.680;23.324;2024-02-21T02:01:54;95896.94;;;7.22;100.00
13027;BME280;6580;42.680;23.324;2024-02-21T02:04:24;95896.72;;;7.25;100.00
13027;BME280;6580;42.680;23.324;2024-02-21T02:06:54;95901.28;;;7.23;100.00
13027;BME280;6580;42.680;23.324;2024-02-21T02:09:21;95895.03;;;7.24;100.00
13027;BME280;6580;42.680;23.324;2024-02-21T02:11:51;95902.97;;;7.24;100.00
13027;BME280;6580;42.680;23.324;2024-02-21T02:14:18;95900.31;;;7.13;100.00
13027;BME280;6580;42.680;23.324;2024-02-21T02:16:46;95899.81;;;7.30;100.00
13027;BME280;6580;42.680;23.324;2024-02-21T02:19:14;95889.50;;;7.27;100.00
13027;BME280;6580;42.680;23.324;2024-02-21T02:21:49;95890.66;;;7.34;100.00
13027;BME280;6580;42.680;23.324;2024-02-21T02:24:24;95885.75;;;7.30;100.00
13027;BME280;6580;42.680;23.324;2024-02-21T02:26:51;95882.72;;;7.12;100.00
13027;BME280;6580;42.680;23.324;2024-02-21T02:29:19;95887.09;;;7.03;100.00
13027;BME280;6580;42.680;23.324;2024-02-21T02:31:46;95883.34;;;7.05;100.00
13027;BME280;6580;42.680;23.324;2024-02-21T02:34:14;95885.03;;;6.95;100.00
13027;BME280;6580;42.680;23.324;2024-02-21T02:36:44;95881.31;;;6.98;100.00
13027;BME280;6580;42.680;23.324;2024-02-21T02:39:10;95879.63;;;6.97;100.00
13027;BME280;6580;42.680;23.324;2024-02-21T02:41:42;95876.25;;;6.95;100.00
13027;BME280;6580;42.680;23.324;2024-02-21T02:44:10;95879.88;;;7.04;100.00
13027;BME280;6580;42.680;23.324;2024-02-21T02:46:36;95879.13;;;7.03;100.00
13027;BME280;6580;42.680;23.324;2024-02-21T02:49:10;95875.06;;;7.09;100.00
13027;BME280;6580;42.680;23.324;2024-02-21T02:51:41;95880.81;;;7.03;100.00
13027;BME280;6580;42.680;23.324;2024-02-21T02:54:09;95883.84;;;6.99;100.00
13027;BME280;6580;42.680;23.324;2024-02-21T02:56:41;95885.53;;;7.00;100.00
13027;BME280;6580;42.680;23.324;2024-02-21T02:59:09;95886.47;;;7.10;100.00
13027;BME280;6580;42.680;23.324;2024-02-21T03:01:36;95887.44;;;7.09;100.00
13027;BME280;6580;42.680;23.324;2024-02-21T03:04:04;95881.66;;;7.04;100.00
13027;BME280;6580;42.680;23.324;2024-02-21T03:06:31;95877.09;;;7.06;100.00
13027;BME280;6580;42.680;23.324;2024-02-21T03:09:00;95886.72;;;7.07;100.00
13027;BME280;6580;42.680;23.324;2024-02-21T03:11:33;95888.75;;;7.14;100.00
13027;BME280;6580;42.680;23.324;2024-02-21T03:14:01;95884.66;;;7.21;100.00
13027;BME280;6580;42.680;23.324;2024-02-21T03:16:29;95892.84;;;7.18;100.00
13027;BME280;6580;42.680;23.324;2024-02-21T03:18:56;95894.69;;;7.18;100.00
13027;BME280;6580;42.680;23.324;2024-02-21T03:21:23;95896.00;;;7.02;100.00
13027;BME280;6580;42.680;23.324;2024-02-21T03:23:50;95886.34;;;7.22;100.00
13027;BME280;6580;42.680;23.324;2024-02-21T03:26:18;95871.19;;;7.03;100.00
13027;BME280;6580;42.680;23.324;2024-02-21T03:28:45;95898.50;;;7.25;100.00
13027;BME280;6580;42.680;23.324;2024-02-21T03:31:16;95902.00;;;7.25;100.00
13027;BME280;6580;42.680;23.324;2024-02-21T03:33:51;95901.75;;;7.17;100.00
13027;BME280;6580;42.680;23.324;2024-02-21T03:36:19;95906.44;;;7.25;100.00
13027;BME280;6580;42.680;23.324;2024-02-21T03:38:46;95908.25;;;7.35;100.00
13027;BME280;6580;42.680;23.324;2024-02-21T03:41:14;95906.69;;;7.22;100.00
13027;BME280;6580;42.680;23.324;2024-02-21T03:43:41;95904.88;;;7.33;100.00
13027;BME280;6580;42.680;23.324;2024-02-21T03:46:08;95914.88;;;7.30;100.00
13027;BME280;6580;42.680;23.324;2024-02-21T03:48:39;95915.00;;;7.17;100.00
13027;BME280;6580;42.680;23.324;2024-02-21T03:51:08;95920.78;;;7.11;100.00
13027;BME280;6580;42.680;23.324;2024-02-21T03:53:37;95915.75;;;7.08;100.00
13027;BME280;6580;42.680;23.324;2024-02-21T03:56:04;95917.06;;;7.14;100.00
13027;BME280;6580;42.680;23.324;2024-02-21T03:58:33;95908.03;;;7.16;100.00
13027;BME280;6580;42.680;23.324;2024-02-21T04:01:02;95911.66;;;7.04;100.00
13027;BME280;6580;42.680;23.324;2024-02-21T04:03:30;95916.81;;;7.28;100.00
13027;BME280;6580;42.680;23.324;2024-02-21T04:05:58;95907.19;;;7.05;100.00
13027;BME280;6580;42.680;23.324;2024-02-21T04:08:26;95906.56;;;7.12;100.00
13027;BME280;6580;42.680;23.324;2024-02-21T04:10:53;95916.94;;;7.15;100.00
13027;BME280;6580;42.680;23.324;2024-02-21T04:13:20;95915.63;;;6.99;100.00
13027;BME280;6580;42.680;23.324;2024-02-21T04:15:48;95916.06;;;7.04;100.00
13027;BME280;6580;42.680;23.324;2024-02-21T04:18:15;95914.78;;;7.20;100.00
13027;BME280;6580;42.680;23.324;2024-02-21T04:20:42;95904.75;;;7.24;100.00
13027;BME280;6580;42.680;23.324;2024-02-21T04:23:10;95912.34;;;7.39;100.00
13027;BME280;6580;42.680;23.324;2024-02-21T04:25:38;95909.00;;;7.26;100.00
13027;BME280;6580;42.680;23.324;2024-02-21T04:28:05;95915.75;;;7.08;100.00
13027;BME280;6580;42.680;23.324;2024-02-21T04:30:32;95896.72;;;7.03;100.00
13027;BME280;6580;42.680;23.324;2024-02-21T04:33:00;95913.19;;;7.07;100.00
13027;BME280;6580;42.680;23.324;2024-02-21T04:35:27;95902.97;;;7.03;100.00
13027;BME280;6580;42.680;23.324;2024-02-21T04:37:54;95897.78;;;7.01;100.00
13027;BME280;6580;42.680;23.324;2024-02-21T04:40:22;95902.75;;;7.05;100.00
13027;BME280;6580;42.680;23.324;2024-02-21T04:42:49;95908.63;;;7.09;100.00
13027;BME280;6580;42.680;23.324;2024-02-21T04:45:17;95909.47;;;6.99;100.00
13027;BME280;6580;42.680;23.324;2024-02-21T04:47:46;95915.59;;;6.88;100.00
13027;BME280;6580;42.680;23.324;2024-02-21T04:50:14;95915.72;;;6.87;100.00
13027;BME280;6580;42.680;23.324;2024-02-21T04:52:45;95911.50;;;6.84;100.00
13027;BME280;6580;42.680;23.324;2024-02-21T04:55:13;95909.22;;;6.80;100.00
13027;BME280;6580;42.680;23.324;2024-02-21T04:57:44;95911.22;;;6.65;100.00
13027;BME280;6580;42.680;23.324;2024-02-21T05:00:15;95899.81;;;6.65;100.00
13027;BME280;6580;42.680;23.324;2024-02-21T05:02:43;95908.72;;;6.53;100.00
13027;BME280;6580;42.680;23.324;2024-02-21T05:05:12;95920.47;;;6.49;100.00
13027;BME280;6580;42.680;23.324;2024-02-21T05:07:40;95913.91;;;6.76;100.00
13027;BME280;6580;42.680;23.324;2024-02-21T05:10:08;95900.31;;;6.70;100.00
13027;BME280;6580;42.680;23.324;2024-02-21T05:12:35;95915.97;;;6.73;100.00
13027;BME280;6580;42.680;23.324;2024-02-21T05:15:08;95921.34;;;6.60;100.00
13027;BME280;6580;42.680;23.324;2024-02-21T05:17:35;95937.84;;;6.75;100.00
13027;BME280;6580;42.680;23.324;2024-02-21T05:20:05;95925.31;;;6.77;100.00
13027;BME280;6580;42.680;23.324;2024-02-21T05:22:32;95930.25;;;6.70;100.00
13027;BME280;6580;42.680;23.324;2024-02-21T05:24:59;95928.84;;;6.77;100.00
13027;BME280;6580;42.680;23.324;2024-02-21T05:27:26;95924.13;;;6.92;100.00
13027;BME280;6580;42.680;23.324;2024-02-21T05:29:53;95920.78;;;6.90;100.00
13027;BME280;6580;42.680;23.324;2024-02-21T05:32:22;95924.75;;;6.95;100.00
13027;BME280;6580;42.680;23.324;2024-02-21T05:34:50;95927.19;;;6.98;100.00
13027;BME280;6580;42.680;23.324;2024-02-21T05:37:17;95918.16;;;6.90;100.00
13027;BME280;6580;42.680;23.324;2024-02-21T05:39:44;95918.84;;;6.92;100.00
13027;BME280;6580;42.680;23.324;2024-02-21T05:42:11;95927.03;;;7.00;100.00
13027;BME280;6580;42.680;23.324;2024-02-21T05:44:41;95915.13;;;6.94;100.00
13027;BME280;6580;42.680;23.324;2024-02-21T05:47:08;95935.47;;;7.04;100.00
13027;BME280;6580;42.680;23.324;2024-02-21T05:49:39;95935.25;;;7.07;100.00
13027;BME280;6580;42.680;23.324;2024-02-21T05:52:06;95928.03;;;7.09;100.00
13027;BME280;6580;42.680;23.324;2024-02-21T05:54:33;95934.28;;;7.19;100.00
13027;BME280;6580;42.680;23.324;2024-02-21T05:57:01;95928.00;;;7.31;100.00
13027;BME280;6580;42.680;23.324;2024-02-21T05:59:28;95939.31;;;7.33;100.00
13027;BME280;6580;42.680;23.324;2024-02-21T06:01:56;95947.97;;;7.46;100.00
13027;BME280;6580;42.680;23.324;2024-02-21T06:04:23;95945.81;;;7.40;100.00
13027;BME280;6580;42.680;23.324;2024-02-21T06:06:52;95941.84;;;7.46;100.00
13027;BME280;6580;42.680;23.324;2024-02-21T06:09:19;95947.16;;;7.46;100.00
13027;BME280;6580;42.680;23.324;2024-02-21T06:11:46;95938.44;;;7.66;100.00
13027;BME280;6580;42.680;23.324;2024-02-21T06:14:14;95951.09;;;7.73;100.00
13027;BME280;6580;42.680;23.324;2024-02-21T06:16:43;95952.28;;;7.80;100.00
13027;BME280;6580;42.680;23.324;2024-02-21T06:19:13;95950.03;;;8.07;100.00
13027;BME280;6580;42.680;23.324;2024-02-21T06:21:40;95950.63;;;8.21;100.00
13027;BME280;6580;42.680;23.324;2024-02-21T06:24:09;95955.06;;;8.32;100.00
13027;BME280;6580;42.680;23.324;2024-02-21T06:26:40;95950.78;;;8.40;100.00
13027;BME280;6580;42.680;23.324;2024-02-21T06:29:10;95950.56;;;8.32;100.00
13027;BME280;6580;42.680;23.324;2024-02-21T06:31:39;95959.66;;;8.50;100.00
13027;BME280;6580;42.680;23.324;2024-02-21T06:34:07;95958.22;;;8.46;100.00
13027;BME280;6580;42.680;23.324;2024-02-21T06:36:35;95966.56;;;8.42;100.00
13027;BME280;6580;42.680;23.324;2024-02-21T06:39:03;95962.63;;;8.36;99.65
13027;BME280;6580;42.680;23.324;2024-02-21T06:41:34;95971.84;;;8.53;100.00
13027;BME280;6580;42.680;23.324;2024-02-21T06:44:01;95976.06;;;9.16;97.28
13027;BME280;6580;42.680;23.324;2024-02-21T06:46:29;95978.34;;;9.51;92.23
13027;BME280;6580;42.680;23.324;2024-02-21T06:48:58;95970.22;;;9.22;91.48
13027;BME280;6580;42.680;23.324;2024-02-21T06:51:25;95972.13;;;8.39;96.28
13027;BME280;6580;42.680;23.324;2024-02-21T06:53:52;95982.25;;;8.65;97.57
13027;BME280;6580;42.680;23.324;2024-02-21T06:56:19;95991.78;;;8.99;97.07
13027;BME280;6580;42.680;23.324;2024-02-21T06:58:48;95979.38;;;8.89;94.55
13027;BME280;6580;42.680;23.324;2024-02-21T07:01:15;95982.59;;;9.12;94.99
13027;BME280;6580;42.680;23.324;2024-02-21T07:03:42;95981.38;;;9.46;92.50
13027;BME280;6580;42.680;23.324;2024-02-21T07:06:08;95977.81;;;9.66;91.05
13027;BME280;6580;42.680;23.324;2024-02-21T07:08:35;95975.53;;;9.82;88.85
13027;BME280;6580;42.680;23.324;2024-02-21T07:11:04;95980.50;;;9.66;87.73
13027;BME280;6580;42.680;23.324;2024-02-21T07:13:32;95982.53;;;9.23;92.01
13027;BME280;6580;42.680;23.324;2024-02-21T07:16:00;95984.69;;;9.09;93.06
13027;BME280;6580;42.680;23.324;2024-02-21T07:18:27;95982.97;;;8.67;96.34
13027;BME280;6580;42.680;23.324;2024-02-21T07:20:54;95984.00;;;8.87;96.77
13027;BME280;6580;42.680;23.324;2024-02-21T07:23:22;95978.78;;;8.85;95.51
13027;BME280;6580;42.680;23.324;2024-02-21T07:25:49;95989.47;;;8.74;96.35
13027;BME280;6580;42.680;23.324;2024-02-21T07:28:16;95989.72;;;8.71;97.66
13027;BME280;6580;42.680;23.324;2024-02-21T07:30:43;95991.56;;;8.71;97.93
13027;BME280;6580;42.680;23.324;2024-02-21T07:33:11;95990.13;;;8.67;97.92
13027;BME280;6580;42.680;23.324;2024-02-21T07:35:39;95990.16;;;9.07;96.78
13027;BME280;6580;42.680;23.324;2024-02-21T07:38:06;95985.47;;;9.50;93.15
13027;BME280;6580;42.680;23.324;2024-02-21T07:40:34;95988.38;;;9.77;91.68
13027;BME280;6580;42.680;23.324;2024-02-21T07:43:02;95986.47;;;9.89;90.25
13027;BME280;6580;42.680;23.324;2024-02-21T07:45:29;95978.41;;;10.00;89.69
13027;BME280;6580;42.680;23.324;2024-02-21T07:47:56;95983.78;;;10.28;86.55
13027;BME280;6580;42.680;23.324;2024-02-21T07:50:25;95989.66;;;10.31;85.74
13027;BME280;6580;42.680;23.324;2024-02-21T07:52:52;95980.16;;;10.38;85.70
13027;BME280;6580;42.680;23.324;2024-02-21T07:55:19;95965.13;;;10.18;84.13
13027;BME280;6580;42.680;23.324;2024-02-21T07:57:46;95978.16;;;10.12;84.59
13027;BME280;6580;42.680;23.324;2024-02-21T08:00:13;95977.91;;;10.34;84.82
13027;BME280;6580;42.680;23.324;2024-02-21T08:02:45;95965.59;;;10.52;83.00
13027;BME280;6580;42.680;23.324;2024-02-21T08:05:12;95967.56;;;10.50;83.79
13027;BME280;6580;42.680;23.324;2024-02-21T08:07:40;95964.72;;;10.23;83.87
13027;BME280;6580;42.680;23.324;2024-02-21T08:10:08;95969.63;;;10.09;84.96
13027;BME280;6580;42.680;23.324;2024-02-21T08:12:35;95966.69;;;10.40;84.30
13027;BME280;6580;42.680;23.324;2024-02-21T08:15:06;95968.13;;;10.72;83.29
13027;BME280;6580;42.680;23.324;2024-02-21T08:17:36;95972.19;;;10.86;80.89
13027;BME280;6580;42.680;23.324;2024-02-21T08:20:03;95964.44;;;11.11;79.14
13027;BME280;6580;42.680;23.324;2024-02-21T08:22:31;95969.44;;;11.33;77.45
13027;BME280;6580;42.680;23.324;2024-02-21T08:25:00;95959.78;;;11.68;75.84
13027;BME280;6580;42.680;23.324;2024-02-21T08:27:27;95963.50;;;11.85;73.26
13027;BME280;6580;42.680;23.324;2024-02-21T08:29:54;95962.44;;;12.05;73.67
13027;BME280;6580;42.680;23.324;2024-02-21T08:32:21;95961.03;;;12.01;71.90
13027;BME280;6580;42.680;23.324;2024-02-21T08:34:48;95957.88;;;12.14;71.06
13027;BME280;6580;42.680;23.324;2024-02-21T08:37:15;95958.44;;;12.18;70.97
13027;BME280;6580;42.680;23.324;2024-02-21T08:39:42;95965.19;;;11.40;72.47
13027;BME280;6580;42.680;23.324;2024-02-21T08:42:10;95962.19;;;11.98;72.54
13027;BME280;6580;42.680;23.324;2024-02-21T08:44:39;95958.50;;;12.26;68.00
13027;BME280;6580;42.680;23.324;2024-02-21T08:47:07;95962.28;;;11.79;72.40
13027;BME280;6580;42.680;23.324;2024-02-21T08:49:35;95962.09;;;12.17;69.05
13027;BME280;6580;42.680;23.324;2024-02-21T08:52:03;95964.13;;;11.23;71.45
13027;BME280;6580;42.680;23.324;2024-02-21T08:54:32;95962.19;;;11.16;74.09
13027;BME280;6580;42.680;23.324;2024-02-21T08:56:59;95967.69;;;11.60;72.35
13027;BME280;6580;42.680;23.324;2024-02-21T08:59:28;95967.41;;;11.63;72.45
13027;BME280;6580;42.680;23.324;2024-02-21T09:01:55;95968.97;;;10.73;73.10
13027;BME280;6580;42.680;23.324;2024-02-21T09:04:22;95972.91;;;10.78;76.63
13027;BME280;6580;42.680;23.324;2024-02-21T09:06:49;95972.72;;;10.80;76.13
13027;BME280;6580;42.680;23.324;2024-02-21T09:09:18;95973.56;;;11.18;75.08
13027;BME280;6580;42.680;23.324;2024-02-21T09:11:45;95964.94;;;11.79;71.68
13027;BME280;6580;42.680;23.324;2024-02-21T09:14:12;95976.28;;;11.45;73.31
13027;BME280;6580;42.680;23.324;2024-02-21T09:16:44;95961.69;;;12.12;69.71
13027;BME280;6580;42.680;23.324;2024-02-21T09:19:11;95963.56;;;11.20;73.10
13027;BME280;6580;42.680;23.324;2024-02-21T09:21:38;95956.22;;;12.04;72.82
13027;BME280;6580;42.680;23.324;2024-02-21T09:24:06;95976.56;;;13.87;63.34
13027;BME280;6580;42.680;23.324;2024-02-21T09:26:33;95949.81;;;12.59;64.64
13027;BME280;6580;42.680;23.324;2024-02-21T09:29:21;95962.59;;;13.00;65.21
13027;BME280;6580;42.680;23.324;2024-02-21T09:31:49;95962.50;;;13.52;62.00
13027;BME280;6580;42.680;23.324;2024-02-21T09:34:16;95956.69;;;14.96;56.91
13027;BME280;6580;42.680;23.324;2024-02-21T09:36:44;95947.06;;;16.58;51.75
13027;BME280;6580;42.680;23.324;2024-02-21T09:39:10;95946.94;;;17.27;49.83
13027;BME280;6580;42.680;23.324;2024-02-21T09:41:45;95945.63;;;17.45;48.04
13027;BME280;6580;42.680;23.324;2024-02-21T09:44:14;95952.09;;;17.87;46.76
13027;BME280;6580;42.680;23.324;2024-02-21T09:46:51;95934.72;;;15.40;50.11
13027;BME280;6580;42.680;23.324;2024-02-21T09:49:29;95943.06;;;15.61;51.60
13027;BME280;6580;42.680;23.324;2024-02-21T09:51:57;95953.06;;;15.99;49.37
13027;BME280;6580;42.680;23.324;2024-02-21T09:54:25;95933.44;;;16.37;49.50
13027;BME280;6580;42.680;23.324;2024-02-21T09:56:52;95939.44;;;16.39;47.82
13027;BME280;6580;42.680;23.324;2024-02-21T09:59:19;95944.94;;;16.76;47.71
13027;BME280;6580;42.680;23.324;2024-02-21T10:01:47;95944.13;;;13.90;52.57
13027;BME280;6580;42.680;23.324;2024-02-21T10:04:15;95943.53;;;14.53;52.41
13027;BME280;6580;42.680;23.324;2024-02-21T10:06:43;95940.31;;;15.85;50.34
13027;BME280;6580;42.680;23.324;2024-02-21T10:09:20;95932.03;;;16.94;46.88
13027;BME280;6580;42.680;23.324;2024-02-21T10:11:49;95930.16;;;17.61;44.81
13027;BME280;6580;42.680;23.324;2024-02-21T10:14:16;95934.63;;;17.69;44.15
13027;BME280;6580;42.680;23.324;2024-02-21T10:16:46;95919.69;;;16.85;45.69
13027;BME280;6580;42.680;23.324;2024-02-21T10:19:19;95922.91;;;15.65;48.31
13027;BME280;6580;42.680;23.324;2024-02-21T10:22:00;95916.25;;;14.82;49.00
13027;BME280;6580;42.680;23.324;2024-02-21T10:24:29;95936.00;;;14.08;50.50
13027;BME280;6580;42.680;23.324;2024-02-21T10:27:01;95932.25;;;13.59;52.48
13027;BME280;6580;42.680;23.324;2024-02-21T10:29:29;95925.88;;;13.86;51.22
13027;BME280;6580;42.680;23.324;2024-02-21T10:32:07;95905.66;;;14.48;49.73
13027;BME280;6580;42.680;23.324;2024-02-21T10:34:39;95886.22;;;14.38;50.38
13027;BME280;6580;42.680;23.324;2024-02-21T10:37:07;95889.84;;;16.11;46.74
13027;BME280;6580;42.680;23.324;2024-02-21T10:39:38;95885.84;;;16.68;45.02
13027;BME280;6580;42.680;23.324;2024-02-21T10:42:06;95887.09;;;17.39;43.56
13027;BME280;6580;42.680;23.324;2024-02-21T10:44:36;95881.38;;;17.20;43.38
13027;BME280;6580;42.680;23.324;2024-02-21T10:47:07;95875.06;;;17.78;42.71
13027;BME280;6580;42.680;23.324;2024-02-21T10:49:39;95857.13;;;18.29;41.68
13027;BME280;6580;42.680;23.324;2024-02-21T10:52:14;95849.72;;;18.93;39.72
13027;BME280;6580;42.680;23.324;2024-02-21T10:54:44;95841.25;;;17.76;40.99
13027;BME280;6580;42.680;23.324;2024-02-21T10:57:13;95845.69;;;18.47;40.82
13027;BME280;6580;42.680;23.324;2024-02-21T10:59:44;95842.47;;;19.76;38.98
13027;BME280;6580;42.680;23.324;2024-02-21T11:02:15;95829.50;;;21.31;36.25
13027;BME280;6580;42.680;23.324;2024-02-21T11:04:45;95833.03;;;20.99;35.61
13027;BME280;6580;42.680;23.324;2024-02-21T11:07:15;95821.56;;;21.04;34.78
13027;BME280;6580;42.680;23.324;2024-02-21T11:09:51;95831.38;;;21.37;34.16
13027;BME280;6580;42.680;23.324;2024-02-21T11:12:20;95809.66;;;20.85;34.38
13027;BME280;6580;42.680;23.324;2024-02-21T11:14:47;95825.38;;;18.31;37.15
13027;BME280;6580;42.680;23.324;2024-02-21T11:17:15;95829.09;;;18.65;35.69
13027;BME280;6580;42.680;23.324;2024-02-21T11:19:44;95831.81;;;17.14;37.91
13027;BME280;6580;42.680;23.324;2024-02-21T11:22:14;95832.28;;;16.36;39.24
13027;BME280;6580;42.680;23.324;2024-02-21T11:24:42;95830.63;;;15.58;41.25
13027;BME280;6580;42.680;23.324;2024-02-21T11:27:12;95823.13;;;16.90;39.41
13027;BME280;6580;42.680;23.324;2024-02-21T11:29:43;95821.28;;;15.85;40.68
13027;BME280;6580;42.680;23.324;2024-02-21T11:32:10;95826.91;;;14.89;41.70
13027;BME280;6580;42.680;23.324;2024-02-21T11:34:37;95825.41;;;14.39;43.34
13027;BME280;6580;42.680;23.324;2024-02-21T11:37:14;95826.72;;;14.27;44.01
13027;BME280;6580;42.680;23.324;2024-02-21T11:39:42;95816.69;;;14.85;43.50
13027;BME280;6580;42.680;23.324;2024-02-21T11:42:09;95816.66;;;15.01;43.00
13027;BME280;6580;42.680;23.324;2024-02-21T11:44:38;95808.28;;;15.04;42.53
13027;BME280;6580;42.680;23.324;2024-02-21T11:47:08;95811.00;;;13.75;44.88
13027;BME280;6580;42.680;23.324;2024-02-21T11:49:37;95805.47;;;13.27;46.40
13027;BME280;6580;42.680;23.324;2024-02-21T11:52:06;95808.50;;;13.73;45.54
13027;BME280;6580;42.680;23.324;2024-02-21T11:54:35;95808.88;;;13.86;45.19
13027;BME280;6580;42.680;23.324;2024-02-21T11:57:02;95804.78;;;13.66;45.97
13027;BME280;6580;42.680;23.324;2024-02-21T11:59:30;95804.91;;;13.98;46.11
13027;BME280;6580;42.680;23.324;2024-02-21T12:01:59;95812.34;;;12.96;47.73
13027;BME280;6580;42.680;23.324;2024-02-21T12:04:26;95811.44;;;13.46;47.00
13027;BME280;6580;42.680;23.324;2024-02-21T12:06:53;95814.38;;;13.27;47.40
13027;BME280;6580;42.680;23.324;2024-02-21T12:09:22;95796.22;;;13.14;47.53
13027;BME280;6580;42.680;23.324;2024-02-21T12:12:08;95806.66;;;12.74;48.62
13027;BME280;6580;42.680;23.324;2024-02-21T12:14:35;95797.84;;;12.81;49.44
13027;BME280;6580;42.680;23.324;2024-02-21T12:17:04;95790.13;;;12.53;50.49
13027;BME280;6580;42.680;23.324;2024-02-21T12:19:31;95800.94;;;12.69;51.48
13027;BME280;6580;42.680;23.324;2024-02-21T12:22:00;95798.84;;;12.55;50.73
13027;BME280;6580;42.680;23.324;2024-02-21T12:24:44;95800.25;;;11.89;51.97
13027;BME280;6580;42.680;23.324;2024-02-21T12:27:14;95794.84;;;11.81;52.74
13027;BME280;6580;42.680;23.324;2024-02-21T12:29:41;95791.88;;;12.02;52.02
13027;BME280;6580;42.680;23.324;2024-02-21T12:32:08;95793.47;;;12.12;51.55
13027;BME280;6580;42.680;23.324;2024-02-21T12:34:35;95791.13;;;12.52;51.23
13027;BME280;6580;42.680;23.324;2024-02-21T12:37:02;95788.47;;;12.52;50.19
13027;BME280;6580;42.680;23.324;2024-02-21T12:39:29;95784.63;;;12.54;50.38
13027;BME280;6580;42.680;23.324;2024-02-21T12:41:57;95785.63;;;12.53;50.61
13027;BME280;6580;42.680;23.324;2024-02-21T12:44:26;95791.53;;;12.39;49.82
13027;BME280;6580;42.680;23.324;2024-02-21T12:46:53;95791.13;;;12.52;49.85
13027;BME280;6580;42.680;23.324;2024-02-21T12:49:21;95789.16;;;12.54;50.29
13027;BME280;6580;42.680;23.324;2024-02-21T12:51:48;95779.94;;;12.31;51.13
13027;BME280;6580;42.680;23.324;2024-02-21T12:54:15;95776.81;;;12.35;52.27
13027;BME280;6580;42.680;23.324;2024-02-21T12:56:42;95770.44;;;12.54;52.49
13027;BME280;6580;42.680;23.324;2024-02-21T12:59:09;95776.56;;;12.72;53.38
13027;BME280;6580;42.680;23.324;2024-02-21T13:01:38;95775.03;;;12.44;55.04
13027;BME280;6580;42.680;23.324;2024-02-21T13:04:05;95776.09;;;12.51;55.86
13027;BME280;6580;42.680;23.324;2024-02-21T13:06:32;95774.16;;;12.61;56.57